Time;durP1;ratioP1;P1;durP2;ratioP2;P2;SDS_P1;SDS_P2;PMS_P1;PMS_P2;Temp;Humidity;BMP_temperature;BMP_pressure;BME280_temperature;BME280_humidity;BME280_pressure;Samples;Min_cycle;Max_cycle;Signal;HPM_P1;HPM_P2
2022/06/01 00:01:52;;;;;;;0.98;0.80;;;15.60;40.10;;;;;;5041285;28;20091;-72
2022/06/01 00:04:19;;;;;;;1.85;1.00;;;15.50;40.00;;;;;;5029730;28;20503;-72
2022/06/01 00:06:45;;;;;;;2.58;0.80;;;15.50;40.10;;;;;;5048263;28;20029;-72
2022/06/01 00:09:11;;;;;;;2.08;0.85;;;15.40;40.00;;;;;;5028889;28;20385;-72
2022/06/01 00:11:39;;;;;;;1.42;0.90;;;15.40;40.20;;;;;;5048854;28;20100;-73
2022/06/01 00:14:05;;;;;;;1.20;0.80;;;15.30;40.10;;;;;;5025162;28;20638;-72
2022/06/01 00:16:31;;;;;;;1.50;1.00;;;15.30;40.20;;;;;;5010295;28;20029;-72
2022/06/01 00:18:57;;;;;;;1.10;0.90;;;15.30;40.30;;;;;;5028699;28;20080;-72
2022/06/01 00:21:24;;;;;;;2.22;1.00;;;15.20;40.30;;;;;;5029522;28;20087;-72
2022/06/01 00:23:50;;;;;;;1.80;0.88;;;15.20;40.40;;;;;;5042922;28;20060;-72
2022/06/01 00:26:16;;;;;;;1.00;0.90;;;15.10;40.30;;;;;;5029507;28;20168;-72
2022/06/01 00:28:42;;;;;;;1.70;0.90;;;15.10;40.50;;;;;;5043291;28;20040;-71
2022/06/01 00:31:11;;;;;;;1.35;1.13;;;15.10;40.50;;;;;;5042146;28;20025;-73
2022/06/01 00:33:37;;;;;;;2.10;1.00;;;15.00;40.50;;;;;;5038813;28;20029;-73
2022/06/01 00:36:05;;;;;;;2.90;1.05;;;15.00;40.70;;;;;;5047360;28;20108;-73
2022/06/01 00:38:31;;;;;;;0.93;0.65;;;14.90;40.60;;;;;;5041377;28;20037;-73
2022/06/01 00:40:57;;;;;;;0.80;0.80;;;14.90;40.70;;;;;;5029412;28;20029;-71
2022/06/01 00:43:38;;;;;;;6.13;1.65;;;14.80;40.60;;;;;;5047169;28;20033;-72
2022/06/01 00:46:04;;;;;;;1.30;0.80;;;14.80;40.70;;;;;;5045070;28;20122;-71
2022/06/01 00:48:33;;;;;;;1.10;0.70;;;14.70;40.60;;;;;;5055003;28;20496;-72
2022/06/01 00:51:00;;;;;;;2.85;1.42;;;14.70;40.70;;;;;;5044284;28;20472;-71
2022/06/01 00:53:29;;;;;;;1.73;1.20;;;14.70;40.70;;;;;;5052148;28;20041;-72
2022/06/01 00:56:03;;;;;;;0.93;0.80;;;14.70;40.90;;;;;;5037242;28;20028;-71
2022/06/01 00:58:34;;;;;;;3.15;0.80;;;14.60;40.90;;;;;;5047779;28;20385;-71
2022/06/01 01:01:01;;;;;;;1.58;0.80;;;14.60;40.90;;;;;;5050796;28;20043;-72
2022/06/01 01:03:33;;;;;;;1.00;0.90;;;14.50;40.90;;;;;;5033276;28;20069;-72
2022/06/01 01:06:11;;;;;;;3.60;1.10;;;14.50;41.00;;;;;;5056092;28;20131;-71
2022/06/01 01:08:38;;;;;;;1.77;1.10;;;14.40;40.90;;;;;;5051836;28;20033;-71
2022/06/01 01:11:09;;;;;;;4.20;1.02;;;14.40;40.90;;;;;;5028039;28;20053;-71
2022/06/01 01:13:36;;;;;;;1.00;0.75;;;14.30;40.90;;;;;;5049419;28;20021;-71
2022/06/01 01:16:04;;;;;;;3.25;0.95;;;14.30;40.90;;;;;;5053431;28;20101;-72
2022/06/01 01:18:35;;;;;;;1.88;1.05;;;14.30;41.60;;;;;;5052123;28;20075;-72
2022/06/01 01:21:39;;;;;;;1.85;1.15;;;14.30;41.10;;;;;;5046449;28;20033;-71
2022/06/01 01:24:23;;;;;;;1.92;0.82;;;14.20;41.20;;;;;;5057081;28;20021;-71
2022/06/01 01:26:50;;;;;;;;;;;14.20;41.20;;;;;;5036775;28;20403;-72
2022/06/01 01:29:31;;;;;;;3.90;1.05;;;14.10;40.80;;;;;;5017981;28;20062;-72
2022/06/01 01:31:58;;;;;;;2.65;1.35;;;14.10;40.80;;;;;;5050411;28;20032;-71
2022/06/01 01:34:24;;;;;;;1.73;0.80;;;14.10;40.90;;;;;;5053706;28;20028;-71
2022/06/01 01:36:54;;;;;;;1.77;1.20;;;14.00;40.90;;;;;;5058455;28;20029;-71
2022/06/01 01:39:20;;;;;;;2.40;0.98;;;14.00;41.10;;;;;;5068686;28;20005;-71
2022/06/01 01:41:48;;;;;;;3.60;1.10;;;14.00;41.20;;;;;;5073760;28;20020;-71
2022/06/01 01:44:51;;;;;;;2.85;1.17;;;14.00;41.40;;;;;;5073590;28;20024;-71
2022/06/01 01:47:19;;;;;;;1.02;0.80;;;14.00;41.60;;;;;;5079478;28;20048;-71
2022/06/01 01:49:45;;;;;;;2.92;1.20;;;14.00;42.00;;;;;;5085268;28;20036;-72
2022/06/01 01:52:14;;;;;;;2.28;1.23;;;14.00;41.50;;;;;;5074778;28;20047;-71
2022/06/01 01:54:57;;;;;;;2.83;0.88;;;14.00;41.70;;;;;;5064785;28;20123;-71
2022/06/01 01:58:07;;;;;;;2.10;1.05;;;14.00;41.90;;;;;;5055154;28;20526;-71
2022/06/01 02:00:39;;;;;;;1.25;1.08;;;14.00;41.90;;;;;;4985444;28;20049;-71
2022/06/01 02:03:55;;;;;;;1.33;0.90;;;14.00;41.80;;;;;;5041283;28;20039;-71
2022/06/01 02:06:39;;;;;;;1.52;1.20;;;14.00;42.00;;;;;;5058980;28;20165;-71
2022/06/01 02:09:09;;;;;;;3.80;1.38;;;14.00;42.00;;;;;;5037663;28;20114;-71
2022/06/01 02:14:50;;;;;;;1.23;0.90;;;14.00;42.20;;;;;;5043467;28;20032;-71
2022/06/01 02:17:37;;;;;;;2.03;1.30;;;14.00;42.20;;;;;;5067062;28;20111;-71
2022/06/01 02:20:15;;;;;;;1.23;1.13;;;13.90;42.10;;;;;;5032415;28;20032;-70
2022/06/01 02:22:41;;;;;;;1.30;0.98;;;14.00;42.30;;;;;;5062000;28;20025;-71
2022/06/01 02:25:09;;;;;;;1.42;0.95;;;14.00;42.40;;;;;;5059952;28;20578;-71
2022/06/01 02:27:37;;;;;;;1.90;1.23;;;13.90;42.30;;;;;;5067385;28;20506;-71
2022/06/01 02:30:07;;;;;;;1.45;1.27;;;14.00;42.60;;;;;;5065574;28;20111;-71
2022/06/01 02:32:35;;;;;;;1.30;1.00;;;14.00;42.60;;;;;;5048577;28;20032;-71
2022/06/01 02:35:04;;;;;;;2.00;0.98;;;14.00;42.70;;;;;;5066234;28;20040;-71
2022/06/01 02:37:33;;;;;;;2.55;1.38;;;14.00;42.80;;;;;;5067458;28;20064;-71
2022/06/01 02:40:03;;;;;;;2.08;1.20;;;14.00;42.90;;;;;;5046775;28;20075;-71
2022/06/01 02:42:29;;;;;;;2.00;1.10;;;14.00;42.90;;;;;;5048707;28;20127;-71
2022/06/01 02:45:04;;;;;;;2.22;0.93;;;14.10;43.20;;;;;;5066574;28;20051;-71
2022/06/01 02:47:34;;;;;;;2.78;1.40;;;14.00;43.10;;;;;;5066345;28;20048;-71
2022/06/01 02:50:01;;;;;;;1.90;1.15;;;14.00;43.10;;;;;;5054485;28;20127;-71
2022/06/01 02:52:28;;;;;;;2.20;1.38;;;14.10;43.30;;;;;;5049013;28;20020;-71
2022/06/01 02:54:54;;;;;;;3.17;1.50;;;14.10;43.40;;;;;;5060077;28;20108;-71
2022/06/01 02:57:20;;;;;;;1.83;1.00;;;14.10;43.50;;;;;;5066386;28;20048;-71
2022/06/01 02:59:47;;;;;;;1.70;1.33;;;14.10;43.50;;;;;;5060013;28;20028;-71
2022/06/01 03:02:14;;;;;;;2.67;1.40;;;14.10;43.60;;;;;;5066632;28;20036;-71
2022/06/01 03:04:42;;;;;;;2.20;1.08;;;14.20;43.90;;;;;;5065864;28;20040;-71
2022/06/01 03:07:08;;;;;;;1.90;1.23;;;14.10;43.80;;;;;;5064821;28;20075;-71
2022/06/01 03:09:34;;;;;;;1.70;1.50;;;14.20;44.00;;;;;;5064469;28;20032;-71
2022/06/01 03:12:00;;;;;;;3.13;1.67;;;14.10;43.90;;;;;;5062821;28;20083;-71
2022/06/01 03:14:27;;;;;;;2.22;1.45;;;14.20;44.10;;;;;;5066780;28;20487;-71
2022/06/01 03:16:53;;;;;;;1.83;1.40;;;14.20;44.20;;;;;;5064672;28;20131;-71
2022/06/01 03:19:19;;;;;;;3.05;1.45;;;14.20;44.30;;;;;;5066090;28;20028;-71
2022/06/01 03:21:45;;;;;;;2.25;1.55;;;14.20;44.40;;;;;;5065860;28;20038;-71
2022/06/01 03:24:11;;;;;;;1.67;1.42;;;14.20;44.40;;;;;;5064812;28;20112;-71
2022/06/01 03:26:37;;;;;;;2.30;1.90;;;14.20;44.40;;;;;;5048852;28;20040;-71
2022/06/01 03:29:04;;;;;;;2.33;1.77;;;14.20;44.50;;;;;;5070405;28;20033;-71
2022/06/01 03:31:30;;;;;;;2.38;1.35;;;14.20;44.60;;;;;;5066695;28;20062;-71
2022/06/01 03:33:57;;;;;;;3.20;1.63;;;14.20;44.60;;;;;;5070160;28;20024;-71
2022/06/01 03:36:23;;;;;;;2.17;1.73;;;14.20;44.70;;;;;;5064009;28;20128;-71
2022/06/01 03:38:49;;;;;;;2.67;1.80;;;14.20;44.80;;;;;;5070380;28;20025;-71
2022/06/01 03:41:15;;;;;;;3.83;1.65;;;14.30;45.00;;;;;;5070574;28;20036;-71
2022/06/01 03:46:25;;;;;;;2.90;2.13;;;14.20;45.50;;;;;;5069167;28;20052;-71
2022/06/01 03:48:51;;;;;;;1.60;1.50;;;14.20;45.00;;;;;;5063603;28;20082;-71
2022/06/01 03:51:18;;;;;;;4.70;1.67;;;14.20;45.00;;;;;;5047504;28;20041;-71
2022/06/01 03:53:43;;;;;;;3.75;2.10;;;14.20;45.10;;;;;;5048087;28;20574;-71
2022/06/01 03:56:09;;;;;;;1.60;1.50;;;14.20;45.20;;;;;;5067923;28;20103;-71
2022/06/01 03:58:36;;;;;;;2.03;1.45;;;14.20;45.30;;;;;;5069972;28;20054;-71
2022/06/01 04:01:06;;;;;;;2.05;1.83;;;14.20;45.40;;;;;;5051130;28;20028;-73
2022/06/01 04:03:32;;;;;;;1.90;1.50;;;14.20;45.50;;;;;;5069119;28;20060;-72
2022/06/01 04:05:58;;;;;;;1.27;1.15;;;14.20;45.60;;;;;;5068666;28;20531;-71
2022/06/01 04:08:24;;;;;;;3.72;1.70;;;14.20;45.60;;;;;;5065879;28;20479;-71
2022/06/01 04:10:50;;;;;;;1.90;1.55;;;14.20;45.70;;;;;;5069989;28;20123;-71
2022/06/01 04:13:16;;;;;;;2.10;1.70;;;14.20;45.70;;;;;;5068375;28;20112;-71
2022/06/01 04:15:42;;;;;;;3.58;1.67;;;14.20;45.80;;;;;;5066790;28;20549;-71
2022/06/01 04:18:08;;;;;;;2.10;1.85;;;14.20;45.80;;;;;;5069356;28;20069;-71
2022/06/01 04:20:34;;;;;;;4.88;2.72;;;14.30;46.10;;;;;;5050880;28;20052;-71
2022/06/01 04:23:03;;;;;;;3.15;1.70;;;14.30;46.10;;;;;;5069105;28;20033;-71
2022/06/01 04:25:30;;;;;;;2.30;1.52;;;14.20;46.00;;;;;;5046595;28;20072;-71
2022/06/01 04:27:56;;;;;;;1.80;1.70;;;14.30;46.20;;;;;;5051614;28;20077;-71
2022/06/01 04:30:22;;;;;;;2.92;1.63;;;14.20;46.10;;;;;;5068757;28;20062;-71
2022/06/01 04:32:52;;;;;;;2.75;1.90;;;14.30;46.40;;;;;;5055321;28;20051;-71
2022/06/01 04:35:20;;;;;;;1.70;1.50;;;14.30;46.50;;;;;;5048547;28;20033;-72
2022/06/01 04:37:46;;;;;;;3.17;1.77;;;14.30;46.50;;;;;;5069199;28;20056;-71
2022/06/01 04:40:13;;;;;;;4.18;2.17;;;14.30;46.50;;;;;;5067670;28;20067;-71
2022/06/01 04:42:40;;;;;;;2.72;1.70;;;14.40;46.70;;;;;;5069346;28;20025;-71
2022/06/01 04:45:09;;;;;;;3.00;2.35;;;14.40;46.70;;;;;;5067700;28;20131;-71
2022/06/01 04:47:35;;;;;;;1.58;1.48;;;14.40;46.70;;;;;;5056719;28;20867;-71
2022/06/01 04:50:01;;;;;;;1.42;1.33;;;14.40;46.80;;;;;;5061969;28;20033;-71
2022/06/01 04:52:27;;;;;;;2.08;1.85;;;14.40;46.80;;;;;;5061149;28;20032;-72
2022/06/01 04:54:53;;;;;;;3.08;1.92;;;14.40;46.80;;;;;;5060080;28;20040;-71
2022/06/01 04:57:19;;;;;;;3.70;2.20;;;14.50;47.10;;;;;;5066244;28;20037;-72
2022/06/01 04:59:45;;;;;;;3.35;1.75;;;14.40;46.90;;;;;;5046882;28;20123;-72
2022/06/01 05:02:10;;;;;;;2.70;1.85;;;14.50;47.10;;;;;;5059568;28;20028;-71
2022/06/01 05:04:37;;;;;;;2.08;1.70;;;14.40;47.00;;;;;;5059246;28;20738;-72
2022/06/01 05:07:03;;;;;;;2.50;1.83;;;14.50;47.20;;;;;;5040463;28;20481;-72
2022/06/01 05:09:29;;;;;;;4.55;2.00;;;14.50;47.20;;;;;;5057043;28;20515;-72
2022/06/01 05:11:56;;;;;;;2.85;1.75;;;14.60;47.40;;;;;;5063188;28;20060;-72
2022/06/01 05:14:22;;;;;;;2.80;1.85;;;14.60;47.40;;;;;;5045068;28;20373;-73
2022/06/01 05:16:47;;;;;;;3.00;2.20;;;14.70;47.50;;;;;;5059207;28;20029;-73
2022/06/01 05:19:13;;;;;;;2.75;2.40;;;14.70;47.50;;;;;;5045792;28;20040;-74
2022/06/01 05:21:39;;;;;;;1.95;1.80;;;14.70;47.50;;;;;;5043703;28;20036;-72
2022/06/01 05:24:06;;;;;;;2.25;1.75;;;14.80;47.70;;;;;;5041907;28;20543;-74
2022/06/01 05:26:32;;;;;;;2.30;2.10;;;14.80;47.70;;;;;;5061023;28;20040;-74
2022/06/01 05:28:58;;;;;;;3.50;2.72;;;14.90;47.90;;;;;;5063379;28;20650;-74
2022/06/01 05:31:24;;;;;;;2.25;2.05;;;14.90;47.80;;;;;;5057679;28;20114;-73
2022/06/01 05:33:50;;;;;;;2.03;1.85;;;15.00;48.00;;;;;;5045029;28;20130;-73
2022/06/01 05:36:17;;;;;;;3.05;2.05;;;15.00;48.00;;;;;;5043387;28;20033;-73
2022/06/01 05:38:46;;;;;;;4.18;2.50;;;15.00;48.00;;;;;;5042658;28;20114;-74
2022/06/01 05:41:12;;;;;;;2.70;2.50;;;15.20;48.30;;;;;;5043087;28;20037;-75
2022/06/01 05:43:38;;;;;;;2.75;1.90;;;15.20;48.30;;;;;;5041389;28;20039;-75
2022/06/01 05:46:04;;;;;;;2.65;2.33;;;15.30;49.00;;;;;;5058738;28;20040;-74
2022/06/01 05:48:30;;;;;;;2.70;1.85;;;15.30;48.30;;;;;;5060940;28;20037;-74
2022/06/01 05:50:57;;;;;;;3.70;2.70;;;15.40;48.50;;;;;;5064626;28;20036;-74
2022/06/01 05:53:23;;;;;;;3.08;2.08;;;15.40;48.40;;;;;;5061859;28;20024;-74
2022/06/01 05:55:49;;;;;;;2.50;2.30;;;15.50;48.50;;;;;;5059785;28;20037;-74
2022/06/01 05:58:21;;;;;;;2.13;1.98;;;15.60;48.60;;;;;;5061822;28;20063;-75
2022/06/01 06:00:49;;;;;;;3.75;2.55;;;15.60;48.60;;;;;;5063209;28;20040;-75
2022/06/01 06:03:18;;;;;;;3.88;2.35;;;15.70;49.00;;;;;;5066270;28;20551;-75
2022/06/01 06:08:30;;;;;;;3.10;2.28;;;16.00;51.50;;;;;;5065565;28;20042;-75
2022/06/01 06:10:56;;;;;;;2.75;1.90;;;16.20;52.30;;;;;;5029254;28;20379;-74
2022/06/01 06:13:22;;;;;;;3.58;1.98;;;16.40;53.00;;;;;;5047497;28;20039;-75
2022/06/01 06:15:48;;;;;;;3.10;2.80;;;16.60;53.50;;;;;;5064827;28;20051;-75
2022/06/01 06:18:15;;;;;;;3.53;2.55;;;16.80;53.90;;;;;;5028953;28;20033;-73
2022/06/01 06:20:45;;;;;;;3.97;2.50;;;17.00;54.20;;;;;;5046098;28;20565;-73
2022/06/01 06:23:12;;;;;;;2.20;1.95;;;17.30;54.50;;;;;;5063066;28;20024;-75
2022/06/01 06:25:39;;;;;;;4.43;2.92;;;17.40;54.20;;;;;;5058438;28;20082;-74
2022/06/01 06:28:05;;;;;;;6.35;2.75;;;17.60;54.10;;;;;;5057992;28;20028;-74
2022/06/01 06:30:32;;;;;;;3.15;2.00;;;17.80;54.00;;;;;;5063050;28;20059;-74
2022/06/01 06:32:57;;;;;;;4.00;2.20;;;18.00;53.90;;;;;;5057307;28;20418;-74
2022/06/01 06:35:24;;;;;;;2.90;2.30;;;18.10;53.70;;;;;;5059404;28;20517;-75
2022/06/01 06:37:50;;;;;;;3.30;1.70;;;18.20;53.50;;;;;;5056962;28;20024;-73
2022/06/01 06:40:16;;;;;;;2.45;2.03;;;18.30;53.30;;;;;;5059391;28;20055;-75
2022/06/01 06:42:42;;;;;;;1.83;1.58;;;18.50;53.30;;;;;;5041290;28;20044;-73
2022/06/01 06:45:09;;;;;;;3.05;1.67;;;18.60;53.50;;;;;;5053787;28;20122;-74
2022/06/01 06:47:35;;;;;;;2.67;1.80;;;18.70;52.80;;;;;;5062545;28;20928;-74
2022/06/01 06:50:05;;;;;;;3.28;2.00;;;18.80;52.70;;;;;;5044230;28;20025;-74
2022/06/01 06:52:30;;;;;;;2.53;1.60;;;18.90;52.50;;;;;;5064142;28;20138;-74
2022/06/01 06:54:56;;;;;;;1.90;1.70;;;19.10;52.90;;;;;;5051732;28;20500;-74
2022/06/01 06:57:22;;;;;;;3.58;1.30;;;19.30;52.20;;;;;;5033849;28;20423;-74
2022/06/01 06:59:48;;;;;;;1.50;1.40;;;19.40;51.90;;;;;;5062702;28;20064;-73
2022/06/01 07:02:18;;;;;;;1.63;1.00;;;19.50;51.80;;;;;;5045592;28;20483;-74
2022/06/01 07:04:45;;;;;;;3.55;1.50;;;19.60;51.70;;;;;;5062042;28;20446;-73
2022/06/01 07:07:11;;;;;;;1.80;1.15;;;19.60;51.40;;;;;;5060083;28;20033;-74
2022/06/01 07:09:37;;;;;;;2.03;1.52;;;19.70;51.40;;;;;;5056314;28;20035;-74
2022/06/01 07:12:04;;;;;;;1.67;1.20;;;19.70;51.20;;;;;;5042428;28;20037;-74
2022/06/01 07:14:30;;;;;;;1.95;1.20;;;19.80;51.20;;;;;;5036177;28;20028;-74
2022/06/01 07:17:00;;;;;;;2.50;1.17;;;19.80;51.00;;;;;;5027779;28;20094;-73
2022/06/01 07:19:26;;;;;;;1.10;1.00;;;20.20;51.40;;;;;;5058486;28;20036;-73
2022/06/01 07:21:52;;;;;;;1.30;1.10;;;20.90;51.30;;;;;;5061938;28;20086;-74
2022/06/01 07:24:18;;;;;;;1.48;1.10;;;21.60;51.10;;;;;;5055457;28;20028;-75
2022/06/01 07:26:46;;;;;;;2.63;1.00;;;22.30;51.20;;;;;;5059893;28;20413;-73
2022/06/01 07:29:14;;;;;;;1.77;0.88;;;22.80;51.00;;;;;;5062531;28;20154;-74
2022/06/01 07:31:40;;;;;;;2.03;1.00;;;23.30;51.00;;;;;;5044116;28;20029;-74
2022/06/01 07:34:06;;;;;;;0.80;0.60;;;23.80;51.00;;;;;;5061691;28;20025;-74
2022/06/01 07:36:33;;;;;;;1.98;0.88;;;24.50;50.90;;;;;;5061859;28;20055;-75
2022/06/01 07:44:32;;;;;;;1.10;0.70;;;27.00;47.00;;;;;;5044046;28;20056;-75
2022/06/01 07:46:58;;;;;;;1.63;0.75;;;27.50;46.20;;;;;;5044179;28;20086;-74
2022/06/01 07:49:25;;;;;;;0.93;0.45;;;27.60;45.30;;;;;;5060236;28;20034;-75
2022/06/01 07:51:53;;;;;;;0.95;0.82;;;27.50;45.10;;;;;;5059332;28;20112;-74
2022/06/01 07:54:20;;;;;;;0.95;0.73;;;27.20;45.30;;;;;;5053838;28;20064;-75
2022/06/01 07:56:45;;;;;;;1.52;0.90;;;26.80;45.90;;;;;;5024820;28;20067;-74
2022/06/01 07:59:12;;;;;;;0.82;0.60;;;26.80;45.80;;;;;;5054840;28;20060;-75
2022/06/01 08:01:39;;;;;;;2.25;0.65;;;26.70;45.90;;;;;;5062234;28;20071;-74
2022/06/01 08:04:07;;;;;;;1.42;0.70;;;26.70;45.80;;;;;;5061784;28;20039;-74
2022/06/01 08:06:35;;;;;;;2.53;0.52;;;26.80;45.70;;;;;;5054981;28;20517;-74
2022/06/01 08:09:02;;;;;;;1.38;0.68;;;26.80;45.60;;;;;;5044032;28;20086;-75
2022/06/01 08:14:14;;;;;;;0.88;0.50;;;27.00;45.50;;;;;;5059254;28;20039;-75
2022/06/01 08:16:41;;;;;;;0.80;0.47;;;27.20;45.30;;;;;;5047235;28;20541;-74
2022/06/01 08:19:09;;;;;;;0.85;0.40;;;27.40;45.00;;;;;;5040799;28;20032;-75
2022/06/01 08:21:36;;;;;;;0.50;0.50;;;27.50;44.70;;;;;;5047960;28;20446;-75
2022/06/01 08:24:02;;;;;;;1.10;0.65;;;27.70;44.50;;;;;;5045533;28;20029;-75
2022/06/01 08:26:29;;;;;;;2.17;0.77;;;27.70;44.30;;;;;;5040410;28;20048;-74
2022/06/01 08:28:55;;;;;;;1.30;0.85;;;27.80;44.10;;;;;;5061144;28;20206;-74
2022/06/01 08:31:21;;;;;;;0.90;0.50;;;27.90;44.00;;;;;;5039678;28;20646;-74
2022/06/01 08:33:47;;;;;;;0.45;0.40;;;27.90;43.90;;;;;;5047675;28;20032;-75
2022/06/01 08:36:13;;;;;;;1.80;0.50;;;27.90;43.60;;;;;;5047048;28;20032;-75
2022/06/01 08:38:38;;;;;;;0.63;0.50;;;28.00;43.50;;;;;;5055552;28;20031;-73
2022/06/01 08:41:08;;;;;;;1.05;0.50;;;28.00;43.30;;;;;;5044106;28;20041;-74
2022/06/01 08:44:07;;;;;;;0.90;0.40;;;28.10;43.10;;;;;;5064628;28;20028;-74
2022/06/01 08:46:34;;;;;;;0.65;0.50;;;28.20;42.90;;;;;;5041422;28;20052;-74
2022/06/01 08:49:06;;;;;;;1.33;0.50;;;28.30;42.90;;;;;;5063215;28;20078;-74
2022/06/01 08:51:32;;;;;;;1.25;0.50;;;28.40;42.60;;;;;;5056195;28;20439;-74
2022/06/01 08:53:59;;;;;;;1.58;0.50;;;28.50;42.40;;;;;;5054272;28;20140;-75
2022/06/01 08:56:47;;;;;;;1.83;0.75;;;28.60;42.20;;;;;;5063064;28;20039;-74
2022/06/01 08:59:40;;;;;;;0.68;0.32;;;28.70;41.90;;;;;;5054677;28;20036;-74
2022/06/01 09:02:34;;;;;;;1.23;0.63;;;28.80;41.80;;;;;;5059052;28;20105;-73
2022/06/01 09:05:07;;;;;;;0.60;0.40;;;29.00;41.60;;;;;;5055198;28;20280;-77
2022/06/01 09:07:43;;;;;;;1.45;0.70;;;29.20;41.50;;;;;;5063491;28;20029;-76
2022/06/01 09:10:28;;;;;;;0.73;0.63;;;29.50;41.10;;;;;;5059583;28;20139;-73
2022/06/01 09:13:08;;;;;;;1.10;0.80;;;29.70;40.90;;;;;;5059626;28;20515;-74
2022/06/01 09:15:54;;;;;;;1.75;0.60;;;29.70;40.60;;;;;;5061082;28;20553;-74
2022/06/01 09:18:24;;;;;;;1.85;0.70;;;29.50;40.40;;;;;;5039150;28;20127;-74
2022/06/01 09:23:35;;;;;;;1.77;1.00;;;29.10;40.90;;;;;;5060935;28;20115;-75
2022/06/01 09:26:03;;;;;;;1.58;0.75;;;29.00;41.10;;;;;;5026131;28;20529;-75
2022/06/01 09:28:30;;;;;;;0.80;0.70;;;28.90;41.20;;;;;;5063846;28;20079;-73
2022/06/01 09:31:02;;;;;;;0.70;0.70;;;28.80;41.20;;;;;;5055671;28;20025;-74
2022/06/01 09:33:30;;;;;;;0.77;0.50;;;28.60;41.20;;;;;;5063553;28;20029;-74
2022/06/01 09:36:08;;;;;;;0.95;0.68;;;28.50;41.30;;;;;;5064068;28;20562;-76
2022/06/01 09:38:42;;;;;;;0.63;0.60;;;28.20;41.30;;;;;;5060857;28;20028;-74
2022/06/01 09:41:17;;;;;;;1.05;0.60;;;28.00;41.50;;;;;;5058511;28;20032;-74
2022/06/01 09:43:52;;;;;;;1.85;0.90;;;27.80;41.80;;;;;;5051530;28;20103;-74
2022/06/01 09:46:34;;;;;;;2.08;0.80;;;27.70;41.90;;;;;;5059525;28;20056;-75
2022/06/01 09:49:18;;;;;;;0.63;0.57;;;27.60;42.50;;;;;;5038534;28;20043;-81
2022/06/01 09:51:46;;;;;;;1.08;0.65;;;27.50;42.00;;;;;;5028813;28;20028;-78
2022/06/01 09:54:13;;;;;;;0.98;0.70;;;27.40;42.10;;;;;;5055678;28;20438;-73
2022/06/01 09:56:45;;;;;;;1.30;0.70;;;27.30;42.00;;;;;;5064184;28;20046;-72
2022/06/01 10:08:18;;;;;;;1.20;0.70;;;27.20;42.40;;;;;;5000517;28;20038;-73
2022/06/01 10:11:01;;;;;;;0.80;0.55;;;27.10;42.40;;;;;;5041506;28;20033;-73
2022/06/01 10:13:47;;;;;;;1.42;0.68;;;27.10;42.40;;;;;;5033447;28;20032;-72
2022/06/01 10:16:42;;;;;;;1.08;0.80;;;27.10;42.50;;;;;;5044831;28;20036;-74
2022/06/01 10:19:12;;;;;;;0.70;0.60;;;27.30;42.40;;;;;;5058287;28;20123;-73
2022/06/01 10:22:00;;;;;;;0.70;0.52;;;27.50;42.30;;;;;;5059103;28;20119;-72
2022/06/01 10:24:35;;;;;;;1.65;0.95;;;27.60;42.00;;;;;;5044299;28;20456;-72
2022/06/01 10:27:03;;;;;;;1.05;0.77;;;27.80;41.90;;;;;;5063769;28;20151;-73
2022/06/01 10:29:34;;;;;;;0.82;0.70;;;27.90;41.80;;;;;;5056266;28;20054;-72
2022/06/01 10:32:08;;;;;;;1.42;0.98;;;27.90;41.70;;;;;;5053920;28;20435;-71
2022/06/01 10:35:15;;;;;;;1.98;0.85;;;28.00;41.60;;;;;;5047800;28;20115;-71
2022/06/01 10:38:05;;;;;;;0.80;0.52;;;28.20;41.40;;;;;;5048423;28;20063;-72
2022/06/01 10:40:43;;;;;;;0.82;0.60;;;28.30;41.30;;;;;;5063371;28;20373;-73
2022/06/01 10:43:28;;;;;;;0.60;0.50;;;28.40;41.20;;;;;;5049827;28;20013;-73
2022/06/01 10:46:21;;;;;;;2.00;0.80;;;28.50;41.20;;;;;;5051342;28;20044;-73
2022/06/01 10:48:55;;;;;;;0.98;0.90;;;28.70;41.00;;;;;;5037879;28;20041;-73
2022/06/01 10:51:32;;;;;;;0.80;0.47;;;29.20;40.70;;;;;;5044017;28;20030;-73
2022/06/01 10:54:03;;;;;;;1.45;0.60;;;29.70;40.20;;;;;;5056662;28;20029;-72
2022/06/01 10:56:30;;;;;;;0.90;0.65;;;30.10;39.80;;;;;;5049655;28;20061;-77
2022/06/01 10:59:01;;;;;;;0.60;0.50;;;30.60;39.40;;;;;;5047543;28;20029;-72
2022/06/01 11:01:46;;;;;;;1.33;0.60;;;31.00;39.60;;;;;;5066738;28;20085;-71
2022/06/01 11:04:33;;;;;;;1.33;0.70;;;31.50;38.30;;;;;;5050623;28;20043;-73
2022/06/01 11:07:31;;;;;;;2.10;0.80;;;31.60;38.20;;;;;;5074288;28;20033;-71
2022/06/01 11:10:25;;;;;;;0.98;0.70;;;31.60;38.30;;;;;;5039511;28;20037;-72
2022/06/01 11:13:00;;;;;;;1.23;1.08;;;31.40;38.30;;;;;;5060983;28;20085;-72
2022/06/01 11:15:54;;;;;;;1.15;0.73;;;31.30;38.30;;;;;;5061728;28;20060;-72
2022/06/01 11:18:38;;;;;;;1.02;0.60;;;31.30;38.50;;;;;;5068672;28;20057;-72
2022/06/01 11:21:24;;;;;;;1.65;0.82;;;31.10;38.60;;;;;;5068810;28;20051;-72
2022/06/01 11:24:04;;;;;;;1.10;0.70;;;31.00;38.60;;;;;;5067454;28;20056;-72
2022/06/01 11:26:42;;;;;;;2.30;0.98;;;30.90;38.80;;;;;;5048314;28;20052;-73
2022/06/01 11:29:28;;;;;;;3.22;0.75;;;30.70;38.80;;;;;;5071955;28;20016;-73
2022/06/01 11:31:58;;;;;;;1.70;0.63;;;30.60;39.00;;;;;;5015933;28;20053;-71
2022/06/01 11:34:38;;;;;;;1.27;0.70;;;30.40;39.10;;;;;;5043508;28;20029;-72
2022/06/01 11:37:23;;;;;;;2.05;0.70;;;30.50;39.10;;;;;;5043617;28;20029;-73
2022/06/01 11:40:17;;;;;;;0.98;0.55;;;30.50;39.00;;;;;;5051042;28;20033;-71
2022/06/01 11:42:55;;;;;;;1.10;0.77;;;30.70;38.90;;;;;;5031430;28;20068;-74
2022/06/01 11:45:27;;;;;;;2.28;0.90;;;30.80;38.80;;;;;;5045722;28;20139;-73
2022/06/01 11:48:00;;;;;;;1.15;0.60;;;31.00;38.60;;;;;;5049235;28;20087;-73
2022/06/01 11:50:51;;;;;;;1.15;0.50;;;31.20;38.60;;;;;;5037248;28;20575;-72
2022/06/01 11:53:31;;;;;;;1.35;0.50;;;31.80;38.20;;;;;;5040674;28;20040;-71
2022/06/01 11:56:25;;;;;;;1.05;0.60;;;32.40;37.80;;;;;;5044610;28;20036;-72
2022/06/01 11:59:15;;;;;;;0.90;0.70;;;33.00;37.30;;;;;;5047980;28;20025;-72
2022/06/01 12:01:41;;;;;;;1.23;0.70;;;33.60;36.70;;;;;;5052169;28;20071;-73
2022/06/01 12:04:49;;;;;;;1.40;0.70;;;34.00;36.50;;;;;;5052004;28;20115;-72
2022/06/01 12:07:17;;;;;;;1.27;0.57;;;34.30;35.90;;;;;;5044341;28;20239;-71
2022/06/01 12:09:57;;;;;;;1.30;0.80;;;34.80;35.80;;;;;;5050572;28;20095;-71
2022/06/01 12:12:32;;;;;;;1.73;0.60;;;35.00;35.40;;;;;;5052449;28;20410;-72
2022/06/01 12:15:17;;;;;;;1.23;0.73;;;35.00;35.40;;;;;;5017671;28;20492;-73
2022/06/01 12:18:12;;;;;;;1.27;0.88;;;35.20;35.20;;;;;;5037936;28;20036;-72
2022/06/01 12:20:38;;;;;;;0.82;0.60;;;35.60;34.90;;;;;;5030191;28;20037;-72
2022/06/01 12:28:54;;;;;;;0.85;0.57;;;35.70;34.40;;;;;;5047966;28;20195;-73
2022/06/01 12:31:26;;;;;;;;;;;35.10;34.80;;;;;;5012857;28;20041;-73
2022/06/01 12:34:04;;;;;;;0.88;0.60;;;34.60;35.40;;;;;;5033005;28;20387;-72
2022/06/01 12:36:50;;;;;;;1.13;0.73;;;34.10;35.70;;;;;;5051617;28;20024;-72
2022/06/01 12:39:41;;;;;;;1.23;0.65;;;33.70;36.00;;;;;;5031754;28;20060;-73
2022/06/01 12:42:24;;;;;;;0.75;0.60;;;33.30;36.20;;;;;;5045407;28;20041;-72
2022/06/01 12:44:53;;;;;;;1.00;0.63;;;32.90;36.50;;;;;;5048627;28;20045;-72
2022/06/01 12:48:23;;;;;;;1.38;0.90;;;32.60;36.70;;;;;;5032294;28;20187;-73
2022/06/01 12:51:00;;;;;;;0.65;0.45;;;32.30;36.80;;;;;;4967748;28;20482;-72
2022/06/01 12:53:40;;;;;;;1.48;0.93;;;32.10;37.20;;;;;;5031482;28;20401;-72
2022/06/01 12:56:20;;;;;;;0.70;0.50;;;31.90;37.30;;;;;;5044337;28;20271;-72
2022/06/01 12:58:50;;;;;;;1.48;0.77;;;31.70;37.40;;;;;;5037505;28;20037;-73
2022/06/01 13:01:18;;;;;;;3.05;0.93;;;31.60;37.50;;;;;;5020400;28;20036;-73
2022/06/01 13:03:51;;;;;;;1.00;0.65;;;31.50;37.60;;;;;;5044125;28;20079;-73
2022/06/01 13:06:21;;;;;;;1.17;0.88;;;31.40;37.70;;;;;;5044141;28;20045;-72
2022/06/01 13:09:05;;;;;;;0.85;0.60;;;31.20;37.80;;;;;;5046666;28;20029;-72
2022/06/01 13:11:33;;;;;;;1.98;0.75;;;31.10;37.90;;;;;;5043566;28;20085;-73
2022/06/01 13:14:06;;;;;;;0.98;0.70;;;31.00;38.00;;;;;;5049932;28;20032;-73
2022/06/01 13:16:43;;;;;;;1.33;0.60;;;30.90;38.10;;;;;;5025084;28;20138;-72
2022/06/01 13:19:15;;;;;;;1.35;0.85;;;30.80;38.20;;;;;;5045656;28;20044;-73
2022/06/01 13:21:46;;;;;;;1.33;0.88;;;30.70;38.30;;;;;;5045245;28;20021;-73
2022/06/01 13:24:12;;;;;;;0.85;0.70;;;30.70;38.50;;;;;;5010460;28;20523;-72
2022/06/01 13:26:42;;;;;;;0.80;0.57;;;30.70;38.50;;;;;;5044591;28;20060;-73
2022/06/01 13:29:21;;;;;;;1.23;0.70;;;30.70;38.60;;;;;;5027871;28;20384;-73
2022/06/01 13:31:57;;;;;;;2.55;0.90;;;30.70;38.60;;;;;;5027818;28;20071;-73
2022/06/01 13:34:32;;;;;;;1.35;1.00;;;30.80;38.60;;;;;;5050502;28;20192;-73
2022/06/01 13:37:10;;;;;;;2.00;0.93;;;30.80;38.60;;;;;;5043533;28;20021;-73
2022/06/01 13:39:42;;;;;;;2.67;0.73;;;30.90;38.50;;;;;;5026972;28;20403;-73
2022/06/01 13:42:08;;;;;;;0.93;0.50;;;31.00;38.50;;;;;;5027675;28;20041;-73
2022/06/01 13:44:45;;;;;;;2.08;0.70;;;31.10;38.40;;;;;;5044518;28;20075;-73
2022/06/01 13:47:12;;;;;;;1.05;0.60;;;31.20;38.30;;;;;;5036329;28;20424;-73